createdAt,value
2022-09-17T00:00:59.195Z,13.00
2022-09-17T00:05:02.281Z,13.70
2022-09-17T00:09:07.527Z,18.40
2022-09-17T00:13:11.609Z,15.02
2022-09-17T00:17:14.750Z,16.45
2022-09-17T00:21:19.496Z,13.63
2022-09-17T00:25:22.999Z,13.75
2022-09-17T00:29:25.956Z,10.68
2022-09-17T00:33:28.834Z,14.27
2022-09-17T00:37:31.957Z,14.85
2022-09-17T00:41:38.967Z,14.95
2022-09-17T00:45:42.276Z,10.93
2022-09-17T00:49:49.450Z,11.45
2022-09-17T00:53:59.061Z,15.90
2022-09-17T00:58:05.870Z,12.75
2022-09-17T01:02:09.276Z,13.70
2022-09-17T01:06:26.323Z,10.18
2022-09-17T01:10:38.359Z,14.38
2022-09-17T01:15:08.768Z,16.50
2022-09-17T01:19:32.908Z,9.88
2022-09-17T01:24:04.803Z,10.75
2022-09-17T01:28:45.404Z,13.13
2022-09-17T01:32:54.382Z,13.30
2022-09-17T01:37:15.237Z,13.65
2022-09-17T01:41:28.841Z,14.38
2022-09-17T01:45:57.310Z,11.70
2022-09-17T01:50:17.401Z,15.30
2022-09-17T01:54:29.071Z,10.75
2022-09-17T01:58:41.564Z,10.27
2022-09-17T02:03:08.756Z,12.27
2022-09-17T02:07:20.613Z,12.15
2022-09-17T02:11:24.025Z,13.52
2022-09-17T02:15:33.744Z,16.55
2022-09-17T02:19:40.310Z,11.73
2022-09-17T02:24:11.787Z,10.60
2022-09-17T02:28:37.369Z,16.02
2022-09-17T02:32:40.629Z,12.57
2022-09-17T02:36:46.486Z,15.15
2022-09-17T02:41:00.362Z,14.00
2022-09-17T02:45:10.780Z,15.68
2022-09-17T02:49:19.985Z,14.50
2022-09-17T02:53:45.208Z,14.70
2022-09-17T02:58:09.757Z,10.43
2022-09-17T03:02:28.255Z,15.57
2022-09-17T03:06:31.225Z,16.75
2022-09-17T03:10:34.226Z,10.65
2022-09-17T03:14:37.369Z,15.13
2022-09-17T03:18:40.725Z,12.75
2022-09-17T03:22:43.841Z,12.13
2022-09-17T03:26:49.581Z,15.10
2022-09-17T03:30:55.876Z,11.63
2022-09-17T03:34:59.054Z,12.85
2022-09-17T03:39:02.479Z,12.80
2022-09-17T03:43:06.500Z,13.95
2022-09-17T03:47:09.465Z,10.65
2022-09-17T03:51:12.747Z,17.05
2022-09-17T03:55:18.941Z,15.57
2022-09-17T03:59:27.337Z,16.23
2022-09-17T04:03:30.754Z,13.85
2022-09-17T04:07:33.741Z,17.63
2022-09-17T04:11:36.576Z,16.60
2022-09-17T04:15:40.036Z,12.82
2022-09-17T04:19:42.968Z,15.45
2022-09-17T04:23:45.798Z,13.48
2022-09-17T04:27:48.867Z,16.27
2022-09-17T04:31:51.744Z,14.40
2022-09-17T04:35:54.573Z,14.82
2022-09-17T04:40:02.150Z,17.73
2022-09-17T04:44:18.597Z,19.02
2022-09-17T04:49:16.031Z,11.00
2022-09-17T04:54:17.235Z,15.00
2022-09-17T04:58:54.593Z,16.85
2022-09-17T05:03:27.074Z,15.50
2022-09-17T05:17:52.135Z,15.70
2022-09-17T05:22:19.522Z,18.05
2022-09-17T05:31:21.805Z,17.45
2022-09-17T05:35:28.132Z,20.80
2022-09-17T05:39:33.559Z,14.67
2022-09-17T05:43:45.172Z,17.25
2022-09-17T05:48:00.171Z,18.15
2022-09-17T05:52:03.955Z,12.20
2022-09-17T05:56:06.977Z,14.27
2022-09-17T06:00:11.984Z,13.75
2022-09-17T06:04:20.517Z,10.88
2022-09-17T06:08:46.959Z,23.65
2022-09-17T06:13:52.527Z,19.05
2022-09-17T06:18:14.661Z,20.70
2022-09-17T06:22:46.369Z,19.33
2022-09-17T06:27:10.725Z,19.13
2022-09-17T06:32:23.909Z,18.15
2022-09-17T06:36:35.887Z,18.40
2022-09-17T06:40:43.254Z,18.60
2022-09-17T06:45:47.914Z,14.57
2022-09-17T06:51:03.077Z,15.20
2022-09-17T07:00:54.378Z,20.60
2022-09-17T07:05:01.246Z,16.38
2022-09-17T07:09:12.236Z,21.52
2022-09-17T07:13:15.650Z,22.73
2022-09-17T07:17:21.415Z,16.63
2022-09-17T07:21:28.319Z,20.52
2022-09-17T07:25:49.431Z,23.67
2022-09-17T07:30:07.934Z,18.67
2022-09-17T07:34:12.850Z,18.85
2022-09-17T07:38:45.054Z,23.33
2022-09-17T07:52:19.649Z,14.90
2022-09-17T07:57:23.225Z,16.92
2022-09-17T08:07:13.856Z,18.08
2022-09-17T08:11:54.327Z,18.58
2022-09-17T08:15:59.228Z,14.70
2022-09-17T08:50:49.080Z,13.63
2022-09-17T09:00:46.110Z,13.95
2022-09-17T09:05:13.523Z,14.23
2022-09-17T09:09:21.244Z,9.88
2022-09-17T09:14:18.290Z,14.90
2022-09-17T09:18:30.839Z,9.60
2022-09-17T09:22:52.941Z,11.13
2022-09-17T09:27:04.084Z,10.57
2022-09-17T09:31:28.628Z,8.80
2022-09-17T09:35:34.612Z,2.92
2022-09-17T09:39:46.052Z,4.57
2022-09-17T09:44:23.063Z,6.75
2022-09-17T09:49:15.293Z,3.58
2022-09-17T09:54:08.162Z,3.00
2022-09-17T10:04:27.763Z,4.65
2022-09-17T10:14:07.979Z,1.83
2022-09-17T10:23:29.991Z,1.52
2022-09-17T10:56:45.136Z,1.02
2022-09-17T11:01:20.421Z,1.13
2022-09-17T11:07:07.115Z,1.60
2022-09-17T11:12:28.905Z,2.05
2022-09-17T11:17:26.137Z,1.35
2022-09-17T11:22:24.512Z,0.65
2022-09-17T11:27:12.621Z,0.50
2022-09-17T14:01:57.462Z,1.83
2022-09-17T14:06:05.607Z,3.03
2022-09-17T14:10:15.050Z,2.53
2022-09-17T14:14:46.881Z,2.20
2022-09-17T14:19:16.908Z,1.58
2022-09-17T14:23:20.607Z,2.17
2022-09-17T14:28:00.731Z,2.05
2022-09-17T14:37:29.581Z,1.40
2022-09-17T15:10:49.444Z,2.65
2022-09-17T15:32:20.747Z,2.05
2022-09-17T15:36:38.127Z,1.58
2022-09-17T15:41:58.902Z,1.83
2022-09-17T18:20:35.014Z,1.20
2022-09-17T18:29:24.693Z,2.10
2022-09-17T18:33:30.703Z,3.95
2022-09-17T18:37:43.855Z,5.05
2022-09-17T18:42:42.614Z,4.00
2022-09-17T18:47:19.606Z,1.92
2022-09-17T18:51:33.198Z,2.95
2022-09-17T18:55:54.765Z,3.80
2022-09-17T19:00:15.882Z,2.47
2022-09-17T19:04:42.928Z,1.85
2022-09-17T19:14:01.698Z,1.95
2022-09-17T19:18:18.627Z,2.80
2022-09-17T19:22:42.100Z,3.33
2022-09-17T19:27:16.847Z,2.83
2022-09-17T19:31:31.817Z,3.03
2022-09-17T19:36:00.308Z,1.73
2022-09-17T19:40:27.902Z,3.13
2022-09-17T19:44:40.518Z,1.88
2022-09-17T19:48:56.211Z,2.38
2022-09-17T19:53:07.734Z,1.83
2022-09-17T19:57:14.708Z,1.15
2022-09-17T20:01:24.107Z,5.30
2022-09-17T20:05:27.668Z,2.30
2022-09-17T20:09:31.924Z,4.90
2022-09-17T20:13:37.662Z,4.20
2022-09-17T20:17:44.565Z,2.67
2022-09-17T20:22:07.104Z,5.32
2022-09-17T20:26:23.164Z,3.40
2022-09-17T20:30:26.819Z,4.05
2022-09-17T20:34:34.651Z,6.25
2022-09-17T20:43:04.505Z,7.35
2022-09-17T20:47:20.148Z,3.35
2022-09-17T20:51:40.509Z,6.83
2022-09-17T20:56:05.961Z,5.90
2022-09-17T21:00:21.520Z,7.43
2022-09-17T21:04:27.273Z,5.53
2022-09-17T21:08:43.679Z,5.53
2022-09-17T21:13:16.068Z,7.72
2022-09-17T21:17:36.660Z,8.25
2022-09-17T21:22:17.095Z,5.05
2022-09-17T21:26:49.402Z,3.25
2022-09-17T21:31:11.433Z,3.38
2022-09-17T21:35:42.538Z,3.20
2022-09-17T21:39:45.636Z,1.98
2022-09-17T21:44:01.581Z,1.67
2022-09-17T21:48:18.162Z,3.10
2022-09-17T21:52:21.105Z,1.20
2022-09-17T21:56:34.090Z,3.50
2022-09-17T22:00:43.194Z,3.03
2022-09-17T22:04:53.500Z,4.28
2022-09-17T22:08:59.085Z,1.52
2022-09-17T22:13:05.119Z,2.85
2022-09-17T22:17:07.954Z,5.45
2022-09-17T22:21:21.142Z,6.47
2022-09-17T22:25:24.079Z,4.70
2022-09-17T22:29:28.559Z,5.40
2022-09-17T22:33:36.463Z,2.55
2022-09-17T22:37:39.679Z,4.93
2022-09-17T22:41:45.873Z,2.70
2022-09-17T22:45:49.033Z,4.75
2022-09-17T22:49:54.521Z,2.28
2022-09-17T22:53:59.133Z,4.97
2022-09-17T22:58:01.989Z,4.13
2022-09-17T23:02:04.953Z,4.32
2022-09-17T23:06:10.836Z,5.25
2022-09-17T23:10:13.717Z,3.00
2022-09-17T23:14:17.262Z,3.60
2022-09-17T23:18:20.511Z,3.58
2022-09-17T23:22:23.535Z,4.22
2022-09-17T23:26:36.816Z,3.53
2022-09-17T23:30:39.699Z,3.85
2022-09-17T23:34:42.768Z,2.63
2022-09-17T23:38:47.427Z,4.30
2022-09-17T23:42:50.530Z,4.32
2022-09-17T23:46:53.538Z,3.92
2022-09-17T23:50:56.506Z,5.15
2022-09-17T23:54:59.447Z,3.22
2022-09-17T23:59:02.750Z,4.25
